createdAt,value
2022-09-06T00:01:22.240Z,43.06
2022-09-06T00:03:52.422Z,42.57
2022-09-06T00:06:22.901Z,42.53
2022-09-06T00:08:52.888Z,42.94
2022-09-06T00:11:25.207Z,42.57
2022-09-06T00:13:54.919Z,41.86
2022-09-06T00:16:30.153Z,41.78
2022-09-06T00:19:00.694Z,42.32
2022-09-06T00:21:31.986Z,42.09
2022-09-06T00:24:01.630Z,42.24
2022-09-06T00:26:33.857Z,41.93
2022-09-06T00:29:03.500Z,41.22
2022-09-06T00:31:35.531Z,41.67
2022-09-06T00:34:05.365Z,41.52
2022-09-06T00:36:35.018Z,41.85
2022-09-06T00:39:04.892Z,41.50
2022-09-06T00:41:37.112Z,42.48
2022-09-06T00:44:06.860Z,42.79
2022-09-06T00:46:37.147Z,43.04
2022-09-06T00:49:10.242Z,43.91
2022-09-06T00:51:39.979Z,43.67
2022-09-06T00:54:11.093Z,44.48
2022-09-06T00:56:45.023Z,44.61
2022-09-06T00:59:14.801Z,44.79
2022-09-06T01:01:44.520Z,45.76
2022-09-06T01:04:14.482Z,46.29
2022-09-06T01:06:51.175Z,46.51
2022-09-06T01:09:33.558Z,46.78
2022-09-06T01:12:19.777Z,47.32
2022-09-06T01:15:00.043Z,47.63
2022-09-06T01:17:39.658Z,48.07
2022-09-06T01:20:32.503Z,48.19
2022-09-06T01:23:25.873Z,48.56
2022-09-06T01:26:05.308Z,48.86
2022-09-06T01:28:39.319Z,49.61
2022-09-06T01:31:18.883Z,49.96
2022-09-06T01:33:53.059Z,49.81
2022-09-06T01:36:25.849Z,50.67
2022-09-06T01:38:55.912Z,50.51
2022-09-06T01:41:25.516Z,51.41
2022-09-06T01:43:58.533Z,51.81
2022-09-06T01:46:32.526Z,51.96
2022-09-06T01:49:12.978Z,52.76
2022-09-06T01:51:55.290Z,53.10
2022-09-06T01:54:31.613Z,53.63
2022-09-06T01:57:13.121Z,54.52
2022-09-06T01:59:58.049Z,55.28
2022-09-06T02:02:31.079Z,55.15
2022-09-06T02:05:04.890Z,55.77
2022-09-06T02:07:35.015Z,55.77
2022-09-06T02:10:10.333Z,56.40
2022-09-06T02:12:43.397Z,57.16
2022-09-06T02:15:18.833Z,58.15
2022-09-06T02:17:51.715Z,59.16
2022-09-06T02:20:25.567Z,59.74
2022-09-06T02:22:56.455Z,59.80
2022-09-06T02:25:29.404Z,60.12
2022-09-06T02:27:59.163Z,60.74
2022-09-06T02:30:31.561Z,61.65
2022-09-06T02:33:03.675Z,62.69
2022-09-06T02:35:33.497Z,62.82
2022-09-06T02:38:03.153Z,63.32
2022-09-06T02:40:32.807Z,63.89
2022-09-06T02:43:02.429Z,64.35
2022-09-06T02:45:35.143Z,64.81
2022-09-06T02:48:05.260Z,64.71
2022-09-06T02:50:34.872Z,65.10
2022-09-06T02:53:06.156Z,65.80
2022-09-06T02:55:36.107Z,66.21
2022-09-06T02:58:06.645Z,66.14
2022-09-06T03:00:39.270Z,66.74
2022-09-06T03:03:09.074Z,66.59
2022-09-06T03:05:38.767Z,66.81
2022-09-06T03:08:08.541Z,66.90
2022-09-06T03:10:38.142Z,67.14
2022-09-06T03:13:07.816Z,67.21
2022-09-06T03:15:40.025Z,67.63
2022-09-06T03:18:09.662Z,67.87
2022-09-06T03:20:39.330Z,67.65
2022-09-06T03:23:09.587Z,67.36
2022-09-06T03:25:39.299Z,67.29
2022-09-06T03:28:08.930Z,67.03
2022-09-06T03:30:41.696Z,67.41
2022-09-06T03:33:11.384Z,67.11
2022-09-06T03:35:41.898Z,67.21
2022-09-06T03:38:11.570Z,66.83
2022-09-06T03:40:41.216Z,66.79
2022-09-06T03:43:10.889Z,66.94
2022-09-06T03:45:43.224Z,66.93
2022-09-06T03:48:12.907Z,67.42
2022-09-06T03:50:47.145Z,67.78
2022-09-06T03:53:17.267Z,67.97
2022-09-06T03:55:47.632Z,67.69
2022-09-06T03:58:17.724Z,68.12
2022-09-06T04:00:50.135Z,68.33
2022-09-06T04:03:20.933Z,67.75
2022-09-06T04:05:50.546Z,68.27
2022-09-06T04:08:20.207Z,68.17
2022-09-06T04:10:52.638Z,68.32
2022-09-06T04:13:22.377Z,68.23
2022-09-06T04:15:55.205Z,68.70
2022-09-06T04:18:25.301Z,68.81
2022-09-06T04:20:56.555Z,68.53
2022-09-06T04:23:27.467Z,69.34
2022-09-06T04:25:59.502Z,69.36
2022-09-06T04:28:29.763Z,69.60
2022-09-06T04:31:05.208Z,70.20
2022-09-06T04:33:36.407Z,69.80
2022-09-06T04:36:08.712Z,69.93
2022-09-06T04:38:39.937Z,70.40
2022-09-06T04:41:10.468Z,70.55
2022-09-06T04:43:40.082Z,70.81
2022-09-06T04:46:16.908Z,70.63
2022-09-06T04:48:46.568Z,70.91
2022-09-06T04:51:16.197Z,70.72
2022-09-06T04:53:45.819Z,70.43
2022-09-06T04:56:17.507Z,71.21
2022-09-06T04:58:48.440Z,70.81
2022-09-06T05:01:21.040Z,71.35
2022-09-06T05:03:53.979Z,71.10
2022-09-06T05:06:27.295Z,71.47
2022-09-06T05:08:57.035Z,71.12
2022-09-06T05:11:27.499Z,71.32
2022-09-06T05:13:57.124Z,71.60
2022-09-06T05:16:29.429Z,71.78
2022-09-06T05:18:59.124Z,71.47
2022-09-06T05:21:28.731Z,71.66
2022-09-06T05:23:58.893Z,71.42
2022-09-06T05:26:28.594Z,71.62
2022-09-06T05:28:58.196Z,71.71
2022-09-06T05:31:32.248Z,71.74
2022-09-06T05:34:02.628Z,71.53
2022-09-06T05:36:33.435Z,71.12
2022-09-06T05:39:03.175Z,70.84
2022-09-06T05:41:33.827Z,70.78
2022-09-06T05:44:03.832Z,70.69
2022-09-06T05:46:36.075Z,70.74
2022-09-06T05:49:08.026Z,70.32
2022-09-06T05:51:37.642Z,70.13
2022-09-06T05:54:07.871Z,69.79
2022-09-06T05:56:37.492Z,69.87
2022-09-06T05:59:07.121Z,69.28
2022-09-06T06:01:39.360Z,69.34
2022-09-06T06:04:09.087Z,69.15
2022-09-06T06:06:38.707Z,69.04
2022-09-06T06:09:08.446Z,68.86
2022-09-06T06:11:38.094Z,68.54
2022-09-06T06:14:07.964Z,68.27
2022-09-06T06:16:40.280Z,67.99
2022-09-06T06:19:09.949Z,67.91
2022-09-06T06:21:40.036Z,67.75
2022-09-06T06:24:10.122Z,66.95
2022-09-06T06:26:40.537Z,67.22
2022-09-06T06:29:10.621Z,66.30
2022-09-06T06:31:43.150Z,66.23
2022-09-06T06:34:13.311Z,65.42
2022-09-06T06:36:44.372Z,65.26
2022-09-06T06:39:14.066Z,65.30
2022-09-06T06:41:43.711Z,64.59
2022-09-06T06:44:48.798Z,64.25
2022-09-06T06:47:21.022Z,63.54
2022-09-06T06:49:50.829Z,63.33
2022-09-06T06:52:21.497Z,62.55
2022-09-06T06:54:51.644Z,60.28
2022-09-06T06:57:21.279Z,57.95
2022-09-06T06:59:50.933Z,55.10
2022-09-06T07:02:23.202Z,52.04
2022-09-06T07:04:52.846Z,49.63
2022-09-06T07:12:48.903Z,43.05
2022-09-06T07:15:18.663Z,41.06
2022-09-06T07:17:50.892Z,39.07
2022-09-06T07:20:20.525Z,38.29
2022-09-06T07:22:50.242Z,36.78
2022-09-06T07:25:21.526Z,35.93
2022-09-06T07:27:51.432Z,34.25
2022-09-06T07:30:21.625Z,32.99
2022-09-06T07:32:53.985Z,32.07
2022-09-06T07:35:25.048Z,31.63
2022-09-06T07:37:55.623Z,30.42
2022-09-06T07:40:25.455Z,29.73
2022-09-06T07:42:55.105Z,29.39
2022-09-06T07:45:24.763Z,28.86
2022-09-06T07:48:00.971Z,28.11
2022-09-06T07:50:47.726Z,28.21
2022-09-06T07:53:26.235Z,27.96
2022-09-06T07:56:00.857Z,27.47
2022-09-06T07:58:31.490Z,27.10
2022-09-06T08:01:30.186Z,26.09
2022-09-06T08:04:03.904Z,26.35
2022-09-06T08:09:25.214Z,26.18
2022-09-06T08:11:55.420Z,25.97
2022-09-06T08:14:27.336Z,25.36
2022-09-06T08:16:57.001Z,24.98
2022-09-06T08:19:29.335Z,24.75
2022-09-06T08:21:59.017Z,24.85
2022-09-06T08:24:29.082Z,24.68
2022-09-06T08:26:58.820Z,24.08
2022-09-06T08:29:28.632Z,24.04
2022-09-06T08:31:58.441Z,24.05
2022-09-06T08:34:30.777Z,23.94
2022-09-06T08:37:00.513Z,23.37
2022-09-06T08:39:30.301Z,22.82
2022-09-06T08:42:03.810Z,22.88
2022-09-06T08:47:26.962Z,21.94
2022-09-06T08:50:04.506Z,21.95
2022-09-06T08:53:15.721Z,21.71
2022-09-06T08:55:46.305Z,22.25
2022-09-06T08:58:26.158Z,22.00
2022-09-06T09:00:59.202Z,21.72
2022-09-06T09:03:34.359Z,20.94
2022-09-06T09:06:07.374Z,20.62
2022-09-06T09:08:43.111Z,20.42
2022-09-06T09:11:17.206Z,20.80
2022-09-06T09:13:55.902Z,19.47
2022-09-06T09:16:25.993Z,19.49
2022-09-06T09:18:58.209Z,19.05
2022-09-06T09:21:31.258Z,18.56
2022-09-06T09:24:02.397Z,18.99
2022-09-06T09:26:37.433Z,18.57
2022-09-06T09:29:08.825Z,18.62
2022-09-06T09:31:40.952Z,18.26
2022-09-06T09:34:13.790Z,18.29
2022-09-06T09:39:39.779Z,17.36
2022-09-06T09:42:10.818Z,16.91
2022-09-06T09:44:45.702Z,16.96
2022-09-06T09:47:28.478Z,16.95
2022-09-06T09:49:58.154Z,17.06
2022-09-06T09:52:31.940Z,16.46
2022-09-06T09:55:05.101Z,16.69
2022-09-06T09:57:46.532Z,16.64
2022-09-06T10:00:17.136Z,16.81
2022-09-06T10:02:46.925Z,16.88
2022-09-06T10:05:23.580Z,16.69
2022-09-06T10:07:57.726Z,17.17
2022-09-06T10:10:28.843Z,17.94
2022-09-06T10:13:10.514Z,19.27
2022-09-06T10:15:41.758Z,20.12
2022-09-06T10:18:18.423Z,21.36
2022-09-06T10:20:52.792Z,22.49
2022-09-06T10:26:27.020Z,24.52
2022-09-06T10:29:01.790Z,25.55
2022-09-06T10:31:52.188Z,26.68
2022-09-06T10:34:51.808Z,27.42
2022-09-06T10:37:28.849Z,27.51
2022-09-06T10:40:06.542Z,28.08
2022-09-06T10:42:43.554Z,28.80
2022-09-06T10:45:27.118Z,29.20
2022-09-06T10:48:02.675Z,29.40
2022-09-06T10:50:40.101Z,29.84
2022-09-06T10:53:14.513Z,30.17
2022-09-06T10:55:48.720Z,30.35
2022-09-06T10:58:22.512Z,30.45
2022-09-06T11:00:54.276Z,30.87
2022-09-06T11:06:20.287Z,31.36
2022-09-06T11:08:57.869Z,31.73
2022-09-06T11:11:39.550Z,31.76
2022-09-06T11:14:13.468Z,32.00
2022-09-06T11:16:48.529Z,31.81
2022-09-06T11:19:22.701Z,32.32
2022-09-06T11:22:11.220Z,32.42
2022-09-06T11:24:53.364Z,32.89
2022-09-06T11:27:35.961Z,32.77
2022-09-06T11:30:08.010Z,32.63
2022-09-06T11:32:41.084Z,32.90
2022-09-06T11:35:13.997Z,32.93
2022-09-06T11:37:49.638Z,32.63
2022-09-06T11:40:27.183Z,33.04
2022-09-06T11:43:48.336Z,33.11
2022-09-06T11:46:56.571Z,32.81
2022-09-06T11:49:41.893Z,33.14
2022-09-06T11:52:44.342Z,33.20
2022-09-06T11:55:17.267Z,33.13
2022-09-06T11:57:50.488Z,33.06
2022-09-06T12:00:24.004Z,33.42
2022-09-06T12:02:54.360Z,33.47
2022-09-06T12:05:29.441Z,33.75
2022-09-06T12:08:28.213Z,33.53
2022-09-06T12:11:03.771Z,33.94
2022-09-06T12:13:44.693Z,33.63
2022-09-06T12:16:14.979Z,33.95
2022-09-06T12:19:00.915Z,34.27
2022-09-06T12:21:52.340Z,34.13
2022-09-06T12:24:52.099Z,34.37
2022-09-06T12:27:22.989Z,34.30
2022-09-06T12:29:58.895Z,34.09
2022-09-06T12:32:36.572Z,34.43
2022-09-06T12:38:02.192Z,34.13
2022-09-06T12:40:33.702Z,34.49
2022-09-06T12:43:05.682Z,34.45
2022-09-06T12:45:35.748Z,34.89
2022-09-06T12:48:11.554Z,34.88
2022-09-06T12:50:41.729Z,34.44
2022-09-06T12:53:26.655Z,35.14
2022-09-06T12:56:06.079Z,34.72
2022-09-06T12:58:36.102Z,34.97
2022-09-06T13:01:12.495Z,34.47
2022-09-06T13:03:45.354Z,34.85
2022-09-06T13:06:26.641Z,34.63
2022-09-06T13:09:01.039Z,35.10
2022-09-06T13:11:34.292Z,34.92
2022-09-06T13:14:03.984Z,35.00
2022-09-06T13:16:37.641Z,34.94
2022-09-06T13:19:14.529Z,34.82
2022-09-06T13:21:46.058Z,34.51
2022-09-06T13:24:26.977Z,34.50
2022-09-06T13:26:57.248Z,34.61
2022-09-06T13:29:28.699Z,35.10
2022-09-06T13:31:59.812Z,35.29
2022-09-06T13:34:30.813Z,34.93
2022-09-06T13:37:04.754Z,34.53
2022-09-06T13:39:39.430Z,33.82
2022-09-06T13:42:10.694Z,33.33
2022-09-06T13:44:41.549Z,32.31
2022-09-06T13:47:11.207Z,31.51
2022-09-06T13:49:40.847Z,31.00
2022-09-06T13:52:10.913Z,30.55
2022-09-06T13:54:43.137Z,30.80
2022-09-06T13:57:13.207Z,30.70
2022-09-06T13:59:42.896Z,30.51
2022-09-06T14:02:16.010Z,30.41
2022-09-06T14:04:45.819Z,30.52
2022-09-06T14:07:15.445Z,30.31
2022-09-06T14:09:49.757Z,30.62
2022-09-06T14:12:19.463Z,30.88
2022-09-06T14:14:49.068Z,30.68
2022-09-06T14:17:19.050Z,31.40
2022-09-06T14:19:49.561Z,31.27
2022-09-06T14:22:19.239Z,31.60
2022-09-06T14:24:51.553Z,31.24
2022-09-06T14:27:21.245Z,31.17
2022-09-06T14:29:50.920Z,31.22
2022-09-06T14:32:22.690Z,31.15
2022-09-06T14:34:52.525Z,31.18
2022-09-06T14:37:22.174Z,30.87
2022-09-06T14:39:54.466Z,29.76
2022-09-06T14:42:24.726Z,29.56
2022-09-06T14:44:54.349Z,29.72
2022-09-06T14:47:24.032Z,29.50
2022-09-06T14:49:53.665Z,29.76
2022-09-06T14:52:23.336Z,29.88
2022-09-06T14:54:55.516Z,30.19
2022-09-06T14:57:25.158Z,30.64
2022-09-06T14:59:55.287Z,30.35
2022-09-06T15:02:26.365Z,30.60
2022-09-06T15:04:56.029Z,30.42
2022-09-06T15:07:25.831Z,29.63
2022-09-06T15:09:58.093Z,29.37
2022-09-06T15:12:28.015Z,28.83
2022-09-06T15:14:57.629Z,29.04
2022-09-06T15:17:27.253Z,29.11
2022-09-06T15:19:57.142Z,29.72
2022-09-06T15:22:26.909Z,29.64
2022-09-06T15:24:59.145Z,29.34
2022-09-06T15:27:29.530Z,29.27
2022-09-06T15:29:59.299Z,28.87
2022-09-06T15:32:29.388Z,29.50
2022-09-06T15:35:04.457Z,29.88
2022-09-06T15:37:34.480Z,30.10
2022-09-06T15:40:07.184Z,30.39
2022-09-06T15:42:36.942Z,29.48
2022-09-06T15:45:07.021Z,28.92
2022-09-06T15:47:37.385Z,28.14
2022-09-06T15:50:07.765Z,27.99
2022-09-06T15:52:37.424Z,27.57
2022-09-06T15:55:23.154Z,27.78
2022-09-06T15:57:52.813Z,27.38
2022-09-06T16:00:23.732Z,27.49
2022-09-06T16:02:53.471Z,27.09
2022-09-06T16:08:12.994Z,26.70
2022-09-06T16:10:45.249Z,26.89
2022-09-06T16:13:14.873Z,26.91
2022-09-06T16:15:44.497Z,26.68
2022-09-06T16:18:14.126Z,26.46
2022-09-06T16:20:43.971Z,26.54
2022-09-06T16:23:13.593Z,26.57
2022-09-06T16:25:50.220Z,26.53
2022-09-06T16:28:19.853Z,26.80
2022-09-06T16:30:49.497Z,26.98
2022-09-06T16:33:19.123Z,27.02
2022-09-06T16:35:48.787Z,26.96
2022-09-06T16:38:18.463Z,27.71
2022-09-06T16:40:50.768Z,28.43
2022-09-06T16:43:20.381Z,28.76
2022-09-06T16:45:58.670Z,29.05
2022-09-06T16:48:28.825Z,29.26
2022-09-06T16:50:58.517Z,29.30
2022-09-06T16:53:28.324Z,29.62
2022-09-06T16:56:00.504Z,29.43
2022-09-06T16:58:30.225Z,29.55
2022-09-06T17:01:00.844Z,29.55
2022-09-06T17:03:30.804Z,29.98
2022-09-06T17:06:00.439Z,29.42
2022-09-06T17:08:30.120Z,29.96
2022-09-06T17:11:03.504Z,30.31
2022-09-06T17:13:32.869Z,30.16
2022-09-06T17:16:17.168Z,30.38
2022-09-06T17:18:48.625Z,30.55
2022-09-06T17:21:18.299Z,30.75
2022-09-06T17:23:48.022Z,30.74
2022-09-06T17:26:21.358Z,31.03
2022-09-06T17:28:51.019Z,31.14
2022-09-06T17:31:25.672Z,31.39
2022-09-06T17:33:56.262Z,30.92
2022-09-06T17:36:27.789Z,31.11
2022-09-06T17:39:02.876Z,30.73
2022-09-06T17:41:37.113Z,31.31
2022-09-06T17:44:07.466Z,31.07
2022-09-06T17:46:41.147Z,31.14
2022-09-06T17:49:13.732Z,31.25
2022-09-06T17:51:43.927Z,30.81
2022-09-06T17:54:13.546Z,31.37
2022-09-06T17:56:46.255Z,30.96
2022-09-06T17:59:16.731Z,31.34
2022-09-06T18:01:47.319Z,31.79
2022-09-06T18:04:18.086Z,31.81
2022-09-06T18:06:48.234Z,31.98
2022-09-06T18:09:19.136Z,32.03
2022-09-06T18:11:51.424Z,31.95
2022-09-06T18:14:21.928Z,32.08
2022-09-06T18:16:54.262Z,32.19
2022-09-06T18:19:24.458Z,32.58
2022-09-06T18:21:54.269Z,32.57
2022-09-06T18:24:24.080Z,33.18
2022-09-06T18:26:56.344Z,33.66
2022-09-06T18:29:26.012Z,33.95
2022-09-06T18:31:57.368Z,34.29
2022-09-06T18:34:27.049Z,34.54
2022-09-06T18:36:57.132Z,35.10
2022-09-06T18:39:26.808Z,35.83
2022-09-06T18:42:10.579Z,35.99
2022-09-06T18:44:40.631Z,36.21
2022-09-06T18:47:12.292Z,36.35
2022-09-06T18:49:44.336Z,36.73
2022-09-06T18:52:14.419Z,37.36
2022-09-06T18:54:44.871Z,37.46
2022-09-06T18:57:17.333Z,37.75
2022-09-06T18:59:47.359Z,38.15
2022-09-06T19:02:17.045Z,38.68
2022-09-06T19:04:46.731Z,39.13
2022-09-06T19:07:16.360Z,38.69
2022-09-06T19:09:45.982Z,39.05
2022-09-06T19:12:18.256Z,38.53
2022-09-06T19:14:47.906Z,38.78
2022-09-06T19:17:17.568Z,38.71
2022-09-06T19:19:47.202Z,38.08
2022-09-06T19:22:17.674Z,38.67
2022-09-06T19:24:47.285Z,38.27
2022-09-06T19:27:19.518Z,37.90
2022-09-06T19:29:49.701Z,37.91
2022-09-06T19:32:22.261Z,38.22
2022-09-06T19:34:52.043Z,38.26
2022-09-06T19:37:23.863Z,38.07
2022-09-06T19:39:54.043Z,38.37
2022-09-06T19:42:26.427Z,38.46
2022-09-06T19:44:56.196Z,38.58
2022-09-06T19:47:25.832Z,38.65
2022-09-06T19:49:55.430Z,38.66
2022-09-06T19:52:25.109Z,39.24
2022-09-06T19:54:55.105Z,38.88
2022-09-06T19:57:27.311Z,39.33
2022-09-06T19:59:56.987Z,39.55
2022-09-06T20:02:26.711Z,40.05
2022-09-06T20:04:56.497Z,39.89
2022-09-06T20:07:27.234Z,40.03
2022-09-06T20:09:57.020Z,40.59
2022-09-06T20:12:29.773Z,40.59
2022-09-06T20:14:59.442Z,40.68
2022-09-06T20:17:33.782Z,41.23
2022-09-06T20:20:04.369Z,41.25
2022-09-06T20:22:34.050Z,41.40
2022-09-06T20:25:03.663Z,41.78
2022-09-06T20:27:35.881Z,41.60
2022-09-06T20:30:05.642Z,42.18
2022-09-06T20:32:35.290Z,41.86
2022-09-06T20:35:04.933Z,42.54
2022-09-06T20:37:34.569Z,42.57
2022-09-06T20:40:05.478Z,42.44
2022-09-06T20:42:42.177Z,43.00
2022-09-06T20:45:12.929Z,42.78
2022-09-06T20:47:42.588Z,43.24
2022-09-06T20:50:13.048Z,43.16
2022-09-06T20:52:42.655Z,43.86
2022-09-06T20:55:12.759Z,44.01
2022-09-06T20:57:45.033Z,44.05
2022-09-06T21:00:15.913Z,43.87
2022-09-06T21:02:45.543Z,44.39
2022-09-06T21:05:15.180Z,44.00
2022-09-06T21:07:44.806Z,44.25
2022-09-06T21:10:14.445Z,44.08
2022-09-06T21:12:46.721Z,44.35
2022-09-06T21:15:16.411Z,44.90
2022-09-06T21:17:46.024Z,44.97
2022-09-06T21:20:15.758Z,45.15
2022-09-06T21:22:45.389Z,45.14
2022-09-06T21:25:15.050Z,45.54
2022-09-06T21:27:47.251Z,45.80
2022-09-06T21:30:17.498Z,46.08
2022-09-06T21:32:47.152Z,46.42
2022-09-06T21:35:16.803Z,46.76
2022-09-06T21:37:46.416Z,46.86
2022-09-06T21:40:16.379Z,46.66
2022-09-06T21:42:48.909Z,46.83
2022-09-06T21:45:18.616Z,47.54
2022-09-06T21:47:48.289Z,47.83
2022-09-06T21:50:18.225Z,48.20
2022-09-06T21:52:47.912Z,48.05
2022-09-06T21:55:17.637Z,48.27
2022-09-06T21:57:49.858Z,48.58
2022-09-06T22:00:19.888Z,49.22
2022-09-06T22:02:49.802Z,49.08
2022-09-06T22:05:19.436Z,49.42
2022-09-06T22:07:49.057Z,49.61
2022-09-06T22:10:18.844Z,49.23
2022-09-06T22:12:51.046Z,49.49
2022-09-06T22:15:22.238Z,49.51
2022-09-06T22:17:52.197Z,48.82
2022-09-06T22:20:22.882Z,48.35
2022-09-06T22:22:52.981Z,48.36
2022-09-06T22:25:22.868Z,48.34
2022-09-06T22:27:55.068Z,48.00
2022-09-06T22:30:25.923Z,47.63
2022-09-06T22:32:55.995Z,47.23
2022-09-06T22:35:25.652Z,46.93
2022-09-06T22:37:55.281Z,46.93
2022-09-06T22:40:24.909Z,46.21
2022-09-06T22:42:57.191Z,46.14
2022-09-06T22:45:26.961Z,46.30
2022-09-06T22:47:56.568Z,45.43
2022-09-06T22:50:26.208Z,45.14
2022-09-06T22:52:55.835Z,45.22
2022-09-06T22:55:25.464Z,44.80
2022-09-06T22:57:57.644Z,44.63
2022-09-06T23:00:27.689Z,44.43
2022-09-06T23:02:57.486Z,44.39
2022-09-06T23:05:27.110Z,44.37
2022-09-06T23:07:57.691Z,44.19
2022-09-06T23:10:27.546Z,44.07
2022-09-06T23:13:00.315Z,44.30
2022-09-06T23:15:29.917Z,44.35
2022-09-06T23:17:59.544Z,44.40
2022-09-06T23:20:29.286Z,44.47
2022-09-06T23:22:58.864Z,44.36
2022-09-06T23:25:28.449Z,46.22
2022-09-06T23:28:01.850Z,47.69
2022-09-06T23:30:31.928Z,49.88
2022-09-06T23:33:01.569Z,51.90
2022-09-06T23:35:31.131Z,54.62
2022-09-06T23:38:00.703Z,57.13
2022-09-06T23:40:30.282Z,59.38
2022-09-06T23:43:02.438Z,61.93
2022-09-06T23:45:32.026Z,63.54
2022-09-06T23:48:01.616Z,65.78
2022-09-06T23:50:31.268Z,67.48
2022-09-06T23:53:00.828Z,68.99
2022-09-06T23:55:30.429Z,69.78
2022-09-06T23:58:02.550Z,70.96
